createdAt,value
2019-02-03T00:00:50.502Z,157.40
2019-02-03T00:01:50.506Z,164.70
2019-02-03T00:02:50.509Z,155.10
2019-02-03T00:03:50.537Z,157.60
2019-02-03T00:04:50.516Z,156.70
2019-02-03T00:05:50.508Z,144.30
2019-02-03T00:07:02.653Z,149.50
2019-02-03T00:07:50.512Z,156.30
2019-02-03T00:08:50.516Z,151.80
2019-02-03T00:10:50.520Z,154.50
2019-02-03T00:11:50.522Z,152.50
2019-02-03T00:12:50.518Z,158.50
2019-02-03T00:13:50.517Z,157.90
2019-02-03T00:14:50.531Z,155.00
2019-02-03T00:15:50.520Z,155.40
2019-02-03T00:16:50.524Z,160.90
2019-02-03T00:17:50.532Z,163.50
2019-02-03T00:18:50.538Z,168.60
2019-02-03T00:19:50.532Z,167.40
2019-02-03T00:20:50.546Z,167.50
2019-02-03T00:21:50.530Z,164.60
2019-02-03T00:22:50.542Z,164.20
2019-02-03T00:24:11.556Z,165.00
2019-02-03T00:24:50.538Z,159.90
2019-02-03T00:25:50.538Z,152.30
2019-02-03T00:26:50.543Z,154.70
2019-02-03T00:27:50.551Z,155.50
2019-02-03T00:28:50.543Z,162.50
2019-02-03T00:29:50.538Z,151.10
2019-02-03T00:30:50.543Z,153.30
2019-02-03T00:31:50.553Z,163.90
2019-02-03T00:32:51.723Z,149.50
2019-02-03T00:33:50.571Z,156.50
2019-02-03T00:34:50.554Z,149.40
2019-02-03T00:35:50.567Z,151.50
2019-02-03T00:36:50.674Z,157.00
2019-02-03T00:37:50.644Z,172.20
2019-02-03T00:38:50.683Z,159.50
2019-02-03T00:39:50.708Z,150.90
2019-02-03T00:40:50.675Z,147.30
2019-02-03T00:41:50.682Z,146.70
2019-02-03T00:42:50.572Z,152.20
2019-02-03T00:43:50.577Z,160.30
2019-02-03T00:44:50.566Z,161.50
2019-02-03T00:45:50.563Z,164.50
2019-02-03T00:46:50.564Z,157.70
2019-02-03T00:47:50.568Z,158.30
2019-02-03T00:48:50.568Z,154.20
2019-02-03T00:49:50.575Z,155.50
2019-02-03T00:50:50.567Z,151.50
2019-02-03T00:51:50.576Z,154.70
2019-02-03T00:52:50.577Z,148.80
2019-02-03T00:53:50.573Z,147.00
2019-02-03T00:54:50.576Z,143.30
2019-02-03T00:55:50.575Z,143.50
2019-02-03T00:56:50.576Z,147.00
2019-02-03T00:57:50.576Z,146.20
2019-02-03T00:58:50.579Z,140.80
2019-02-03T00:59:50.579Z,151.20
2019-02-03T01:00:50.579Z,144.90
2019-02-03T01:01:50.581Z,151.20
2019-02-03T01:02:50.588Z,152.40
2019-02-03T01:03:50.586Z,144.30
2019-02-03T01:05:50.597Z,160.90
2019-02-03T01:06:50.588Z,173.40
2019-02-03T01:07:50.591Z,150.10
2019-02-03T01:08:50.592Z,139.00
2019-02-03T01:09:50.592Z,149.40
2019-02-03T01:10:50.600Z,156.40
2019-02-03T01:11:50.591Z,144.90
2019-02-03T01:12:50.593Z,143.50
2019-02-03T01:13:50.600Z,146.10
2019-02-03T01:14:50.610Z,147.10
2019-02-03T01:15:50.606Z,141.30
2019-02-03T01:16:50.604Z,150.70
2019-02-03T01:17:50.605Z,143.60
2019-02-03T01:18:50.618Z,147.60
2019-02-03T01:19:50.611Z,147.50
2019-02-03T01:20:50.611Z,138.50
2019-02-03T01:21:50.608Z,144.20
2019-02-03T01:22:50.646Z,141.30
2019-02-03T01:23:50.629Z,146.30
2019-02-03T01:24:50.613Z,155.80
2019-02-03T01:25:50.637Z,153.10
2019-02-03T01:26:50.618Z,144.10
2019-02-03T01:27:50.622Z,143.40
2019-02-03T01:28:50.754Z,140.60
2019-02-03T01:30:50.621Z,139.30
2019-02-03T01:31:50.626Z,136.80
2019-02-03T01:32:50.670Z,139.20
2019-02-03T01:33:50.621Z,141.00
2019-02-03T01:34:50.624Z,138.30
2019-02-03T01:35:50.627Z,140.70
2019-02-03T01:36:50.635Z,134.80
2019-02-03T01:37:50.641Z,139.20
2019-02-03T01:38:50.635Z,136.80
2019-02-03T01:39:50.643Z,135.50
2019-02-03T01:40:50.644Z,141.70
2019-02-03T01:41:50.656Z,138.00
2019-02-03T01:42:50.630Z,138.00
2019-02-03T01:43:50.637Z,144.10
2019-02-03T01:44:50.647Z,137.40
2019-02-03T01:45:50.639Z,142.50
2019-02-03T01:46:50.686Z,151.10
2019-02-03T01:47:50.643Z,149.90
2019-02-03T01:48:50.643Z,149.80
2019-02-03T01:49:50.647Z,150.20
2019-02-03T01:50:50.640Z,148.80
2019-02-03T01:51:50.649Z,143.80
2019-02-03T01:52:50.672Z,148.90
2019-02-03T01:53:50.650Z,142.30
2019-02-03T01:54:50.653Z,149.00
2019-02-03T01:55:50.663Z,134.20
2019-02-03T01:56:50.655Z,136.50
2019-02-03T01:57:50.656Z,136.50
2019-02-03T01:58:50.659Z,136.50
2019-02-03T01:59:50.662Z,131.40
2019-02-03T02:00:50.663Z,134.70
2019-02-03T02:01:50.665Z,140.30
2019-02-03T02:02:50.667Z,129.80
2019-02-03T02:03:50.672Z,129.70
2019-02-03T02:04:50.659Z,136.40
2019-02-03T02:05:50.666Z,127.40
2019-02-03T02:06:53.004Z,132.50
2019-02-03T02:07:52.057Z,140.20
2019-02-03T02:08:50.674Z,148.80
2019-02-03T02:09:50.673Z,140.10
2019-02-03T02:10:50.673Z,147.80
2019-02-03T02:11:50.677Z,150.70
2019-02-03T02:12:50.674Z,144.20
2019-02-03T02:13:50.679Z,141.10
2019-02-03T02:14:50.682Z,144.70
2019-02-03T02:15:50.682Z,139.10
2019-02-03T02:16:50.686Z,145.40
2019-02-03T02:17:50.691Z,147.70
2019-02-03T02:19:50.685Z,153.50
2019-02-03T02:20:50.685Z,143.40
2019-02-03T02:21:50.690Z,148.40
2019-02-03T02:22:50.691Z,143.80
2019-02-03T02:23:50.697Z,141.60
2019-02-03T02:24:50.695Z,144.50
2019-02-03T02:25:50.696Z,142.60
2019-02-03T02:26:50.688Z,150.60
2019-02-03T02:27:50.694Z,149.10
2019-02-03T02:28:50.688Z,149.20
2019-02-03T02:29:50.690Z,138.80
2019-02-03T02:30:50.698Z,143.70
2019-02-03T02:31:50.699Z,142.40
2019-02-03T02:32:50.708Z,145.10
2019-02-03T02:33:50.709Z,145.10
2019-02-03T02:34:50.708Z,138.00
2019-02-03T02:35:50.707Z,144.90
2019-02-03T02:36:50.701Z,137.30
2019-02-03T02:37:56.904Z,140.90
2019-02-03T02:38:50.707Z,147.10
2019-02-03T02:39:50.708Z,151.30
2019-02-03T02:40:50.709Z,152.70
2019-02-03T02:41:50.777Z,147.20
2019-02-03T02:42:50.703Z,151.40
2019-02-03T02:43:50.704Z,146.30
2019-02-03T02:44:50.706Z,141.90
2019-02-03T02:45:50.709Z,137.00
2019-02-03T02:46:50.711Z,144.30
2019-02-03T02:47:50.714Z,142.10
2019-02-03T02:48:50.717Z,153.00
2019-02-03T02:49:50.714Z,154.30
2019-02-03T02:50:50.713Z,143.60
2019-02-03T02:51:50.714Z,162.00
2019-02-03T02:52:50.713Z,149.60
2019-02-03T02:53:50.718Z,147.00
2019-02-03T02:54:50.722Z,151.80
2019-02-03T02:55:50.717Z,145.80
2019-02-03T02:56:50.716Z,150.70
2019-02-03T02:57:50.735Z,150.40
2019-02-03T02:58:50.717Z,154.70
2019-02-03T02:59:50.721Z,157.20
2019-02-03T03:00:50.718Z,167.40
2019-02-03T03:01:50.713Z,160.30
2019-02-03T03:02:50.722Z,154.80
2019-02-03T03:03:50.725Z,162.10
2019-02-03T03:04:50.733Z,157.60
2019-02-03T03:05:50.727Z,162.60
2019-02-03T03:06:50.725Z,163.40
2019-02-03T03:07:50.723Z,172.50
2019-02-03T03:09:50.722Z,166.00
2019-02-03T03:10:50.727Z,158.00
2019-02-03T03:11:50.727Z,153.90
2019-02-03T03:12:50.731Z,166.60
2019-02-03T03:13:50.739Z,161.60
2019-02-03T03:14:50.727Z,162.00
2019-02-03T03:15:50.719Z,158.70
2019-02-03T03:16:50.725Z,168.10
2019-02-03T03:17:50.732Z,159.00
2019-02-03T03:18:50.725Z,158.60
2019-02-03T03:19:50.729Z,156.70
2019-02-03T03:20:50.733Z,159.80
2019-02-03T03:21:50.736Z,169.50
2019-02-03T03:22:50.729Z,153.70
2019-02-03T03:23:50.732Z,159.90
2019-02-03T03:24:50.740Z,161.00
2019-02-03T03:25:50.774Z,162.80
2019-02-03T03:26:50.734Z,170.50
2019-02-03T03:27:50.786Z,163.70
2019-02-03T03:28:50.740Z,161.40
2019-02-03T03:29:50.733Z,165.80
2019-02-03T03:30:50.731Z,165.40
2019-02-03T03:31:50.736Z,158.40
2019-02-03T03:32:50.758Z,160.00
2019-02-03T03:33:50.750Z,167.60
2019-02-03T03:34:50.740Z,166.20
2019-02-03T03:35:50.742Z,169.80
2019-02-03T03:36:50.738Z,168.70
2019-02-03T03:37:50.739Z,176.10
2019-02-03T03:38:50.740Z,158.40
2019-02-03T03:39:50.753Z,161.50
2019-02-03T03:40:50.741Z,154.00
2019-02-03T03:41:50.738Z,168.50
2019-02-03T03:42:50.746Z,158.20
2019-02-03T03:43:50.734Z,157.80
2019-02-03T03:44:50.741Z,156.80
2019-02-03T03:45:50.875Z,145.00
2019-02-03T03:46:50.740Z,151.30
2019-02-03T03:47:50.742Z,157.20
2019-02-03T03:48:50.749Z,157.90
2019-02-03T03:49:50.743Z,157.20
2019-02-03T03:50:50.752Z,151.70
2019-02-03T03:51:50.743Z,163.60
2019-02-03T03:52:50.753Z,161.90
2019-02-03T03:53:50.753Z,163.30
2019-02-03T03:54:50.751Z,151.40
2019-02-03T03:55:50.744Z,150.60
2019-02-03T03:56:50.761Z,162.90
2019-02-03T03:57:50.784Z,151.20
2019-02-03T03:58:50.746Z,156.60
2019-02-03T03:59:50.747Z,154.30
2019-02-03T04:00:50.753Z,149.50
2019-02-03T04:01:50.751Z,158.70
2019-02-03T04:02:50.754Z,159.40
2019-02-03T04:03:50.762Z,156.90
2019-02-03T04:04:50.754Z,155.70
2019-02-03T04:05:50.750Z,157.20
2019-02-03T04:06:50.756Z,164.10
2019-02-03T04:07:50.761Z,154.20
2019-02-03T04:08:50.751Z,155.00
2019-02-03T04:09:50.957Z,157.60
2019-02-03T04:10:50.750Z,156.40
2019-02-03T04:11:50.755Z,150.90
2019-02-03T04:12:50.819Z,151.70
2019-02-03T04:13:50.756Z,149.50
2019-02-03T04:14:50.750Z,151.90
2019-02-03T04:15:50.756Z,145.20
2019-02-03T04:16:50.753Z,146.00
2019-02-03T04:17:50.758Z,149.20
2019-02-03T04:18:51.481Z,146.00
2019-02-03T04:19:50.753Z,150.90
2019-02-03T04:20:50.753Z,145.60
2019-02-03T04:21:50.761Z,145.50
2019-02-03T04:22:50.761Z,142.70
2019-02-03T04:23:50.762Z,147.60
2019-02-03T04:24:50.775Z,144.30
2019-02-03T04:25:50.760Z,141.10
2019-02-03T04:27:50.771Z,141.90
2019-02-03T04:28:50.762Z,134.70
2019-02-03T04:29:50.764Z,135.40
2019-02-03T04:30:50.759Z,129.20
2019-02-03T04:31:50.758Z,133.50
2019-02-03T04:32:50.758Z,128.00
2019-02-03T04:33:50.762Z,130.70
2019-02-03T04:34:50.758Z,125.70
2019-02-03T04:35:50.752Z,125.10
2019-02-03T04:36:50.759Z,133.10
2019-02-03T04:37:50.763Z,126.50
2019-02-03T04:38:58.247Z,127.90
2019-02-03T04:39:50.760Z,128.30
2019-02-03T04:40:50.762Z,124.00
2019-02-03T04:41:50.760Z,117.90
2019-02-03T04:42:50.784Z,120.40
2019-02-03T04:43:50.775Z,119.30
2019-02-03T04:44:50.764Z,118.90
2019-02-03T04:45:50.773Z,117.10
2019-02-03T04:46:50.971Z,119.50
2019-02-03T04:47:50.793Z,118.60
2019-02-03T04:48:50.766Z,118.40
2019-02-03T04:49:50.762Z,115.10
2019-02-03T04:50:50.931Z,116.30
2019-02-03T04:51:50.767Z,117.50
2019-02-03T04:52:50.808Z,114.00
2019-02-03T04:53:50.770Z,112.00
2019-02-03T04:54:50.777Z,117.90
2019-02-03T04:55:50.770Z,115.90
2019-02-03T04:56:50.769Z,112.60
2019-02-03T04:57:50.769Z,118.00
2019-02-03T04:58:50.772Z,118.90
2019-02-03T04:59:50.770Z,111.10
2019-02-03T05:00:50.778Z,112.80
2019-02-03T05:01:50.775Z,108.30
2019-02-03T05:02:50.915Z,106.40
2019-02-03T05:03:50.763Z,107.70
2019-02-03T05:04:50.787Z,106.70
2019-02-03T05:05:50.770Z,103.70
2019-02-03T05:06:50.770Z,104.60
2019-02-03T05:07:50.770Z,102.30
2019-02-03T05:08:50.776Z,99.30
2019-02-03T05:09:50.770Z,101.70
2019-02-03T05:10:50.776Z,100.90
2019-02-03T05:11:50.767Z,99.70
2019-02-03T05:12:50.772Z,101.30
2019-02-03T05:13:50.776Z,98.80
2019-02-03T05:14:50.790Z,97.70
2019-02-03T05:15:50.783Z,98.30
2019-02-03T05:16:50.777Z,93.60
2019-02-03T05:17:50.786Z,98.70
2019-02-03T05:18:50.782Z,100.10
2019-02-03T05:19:50.787Z,92.60
2019-02-03T05:20:50.775Z,94.20
2019-02-03T05:21:50.910Z,93.80
2019-02-03T05:22:50.779Z,92.60
2019-02-03T05:23:50.781Z,93.40
2019-02-03T05:24:50.784Z,90.90
2019-02-03T05:25:50.783Z,89.50
2019-02-03T05:26:50.789Z,88.30
2019-02-03T05:27:50.783Z,85.10
2019-02-03T05:28:50.783Z,91.30
2019-02-03T05:29:50.809Z,84.60
2019-02-03T05:30:50.794Z,87.70
2019-02-03T05:31:50.787Z,82.40
2019-02-03T05:32:50.787Z,87.30
2019-02-03T05:33:50.791Z,82.70
2019-02-03T05:34:50.792Z,81.20
2019-02-03T05:35:50.787Z,80.70
2019-02-03T05:36:50.787Z,81.90
2019-02-03T05:37:50.828Z,80.50
2019-02-03T05:38:50.791Z,81.80
2019-02-03T05:39:50.793Z,82.10
2019-02-03T05:40:50.795Z,80.60
2019-02-03T05:41:50.800Z,82.10
2019-02-03T05:42:50.796Z,85.20
2019-02-03T05:43:50.796Z,86.00
2019-02-03T05:44:50.796Z,85.40
2019-02-03T05:45:50.797Z,80.70
2019-02-03T05:46:50.797Z,80.20
2019-02-03T05:47:50.797Z,80.50
2019-02-03T05:48:50.804Z,86.20
2019-02-03T05:49:50.801Z,82.80
2019-02-03T05:50:50.803Z,81.60
2019-02-03T05:51:50.804Z,81.50
2019-02-03T05:52:50.810Z,86.10
2019-02-03T05:53:50.808Z,81.30
2019-02-03T05:54:50.804Z,82.80
2019-02-03T05:55:50.801Z,79.10
2019-02-03T05:56:50.804Z,75.70
2019-02-03T05:57:50.815Z,84.00
2019-02-03T05:58:50.816Z,76.50
2019-02-03T05:59:50.810Z,77.70
2019-02-03T06:00:50.810Z,77.70
2019-02-03T06:01:50.810Z,75.00
2019-02-03T06:02:50.818Z,75.10
2019-02-03T06:03:50.826Z,76.20
2019-02-03T06:04:50.810Z,73.00
2019-02-03T06:05:50.822Z,68.10
2019-02-03T06:06:50.823Z,70.00
2019-02-03T06:07:50.818Z,76.80
2019-02-03T06:08:50.856Z,69.00
2019-02-03T06:09:50.822Z,72.20
2019-02-03T06:10:50.817Z,71.50
2019-02-03T06:11:50.810Z,73.50
2019-02-03T06:12:50.821Z,72.60
2019-02-03T06:13:50.821Z,71.40
2019-02-03T06:14:50.829Z,70.50
2019-02-03T06:15:50.839Z,73.40
2019-02-03T06:16:50.825Z,67.80
2019-02-03T06:17:50.823Z,72.90
2019-02-03T06:18:50.830Z,75.00
2019-02-03T06:19:50.828Z,69.10
2019-02-03T06:20:50.828Z,70.50
2019-02-03T06:21:50.834Z,66.00
2019-02-03T06:22:50.831Z,70.00
2019-02-03T06:23:50.844Z,75.50
2019-02-03T06:24:51.875Z,65.00
2019-02-03T06:25:50.835Z,71.10
2019-02-03T06:26:50.827Z,71.40
2019-02-03T06:27:50.833Z,72.30
2019-02-03T06:28:50.827Z,68.00
2019-02-03T06:29:50.835Z,74.40
2019-02-03T06:30:50.843Z,67.30
2019-02-03T06:31:50.843Z,71.30
2019-02-03T06:32:50.842Z,68.50
2019-02-03T06:33:50.836Z,72.50
2019-02-03T06:34:50.840Z,70.30
2019-02-03T06:35:50.839Z,68.20
2019-02-03T06:36:51.948Z,67.50
2019-02-03T06:37:50.843Z,66.80
2019-02-03T06:38:50.843Z,67.70
2019-02-03T06:39:50.843Z,69.10
2019-02-03T06:40:50.846Z,65.30
2019-02-03T06:41:50.989Z,59.60
2019-02-03T06:42:50.843Z,62.00
2019-02-03T06:43:50.848Z,66.10
2019-02-03T06:44:50.856Z,64.10
2019-02-03T06:45:50.844Z,66.40
2019-02-03T06:46:50.851Z,57.50
2019-02-03T06:47:50.864Z,61.50
2019-02-03T06:48:50.856Z,64.80
2019-02-03T06:49:50.850Z,57.60
2019-02-03T06:50:50.847Z,59.60
2019-02-03T06:51:50.859Z,56.50
2019-02-03T06:52:50.862Z,55.30
2019-02-03T06:53:50.852Z,56.80
2019-02-03T06:54:50.853Z,56.20
2019-02-03T06:55:50.857Z,57.10
2019-02-03T06:56:50.857Z,56.70
2019-02-03T06:57:50.855Z,54.70
2019-02-03T06:58:50.858Z,57.70
2019-02-03T06:59:51.415Z,58.00
2019-02-03T07:00:50.867Z,50.80
2019-02-03T07:01:50.868Z,54.40
2019-02-03T07:02:50.859Z,51.90
2019-02-03T07:03:50.868Z,54.20
2019-02-03T07:04:50.862Z,51.30
2019-02-03T07:05:50.862Z,52.30
2019-02-03T07:06:50.860Z,49.00
2019-02-03T07:07:50.863Z,52.30
2019-02-03T07:08:50.871Z,49.10
2019-02-03T07:10:00.061Z,50.70
2019-02-03T07:10:50.871Z,48.80
2019-02-03T07:11:50.871Z,50.80
2019-02-03T07:12:50.876Z,50.50
2019-02-03T07:13:50.871Z,47.10
2019-02-03T07:14:50.873Z,49.20
2019-02-03T07:15:50.871Z,46.90
2019-02-03T07:16:50.871Z,45.90
2019-02-03T07:17:50.872Z,45.70
2019-02-03T07:18:50.874Z,40.60
2019-02-03T07:19:50.878Z,41.20
2019-02-03T07:20:50.883Z,39.90
2019-02-03T07:21:50.875Z,44.00
2019-02-03T07:22:50.898Z,38.00
2019-02-03T07:23:50.883Z,37.40
2019-02-03T07:24:50.879Z,41.10
2019-02-03T07:25:50.884Z,38.80
2019-02-03T07:26:50.882Z,35.20
2019-02-03T07:27:50.881Z,35.60
2019-02-03T07:28:50.882Z,35.80
2019-02-03T07:29:50.886Z,32.60
2019-02-03T07:30:50.884Z,30.40
2019-02-03T07:31:50.886Z,29.50
2019-02-03T07:32:50.887Z,34.70
2019-02-03T07:33:50.887Z,30.70
2019-02-03T07:34:50.883Z,33.30
2019-02-03T07:35:50.888Z,33.00
2019-02-03T07:36:50.892Z,30.00
2019-02-03T07:37:50.910Z,30.00
2019-02-03T07:38:50.894Z,32.40
2019-02-03T07:39:50.891Z,34.20
2019-02-03T07:40:50.894Z,31.20
2019-02-03T07:41:50.892Z,31.60
2019-02-03T07:42:50.904Z,34.50
2019-02-03T07:43:50.920Z,28.60
2019-02-03T07:44:50.911Z,29.40
2019-02-03T07:45:50.897Z,26.70
2019-02-03T07:46:50.908Z,30.70
2019-02-03T07:47:50.905Z,32.30
2019-02-03T07:48:50.899Z,26.60
2019-02-03T07:49:50.911Z,30.80
2019-02-03T07:50:50.902Z,26.00
2019-02-03T07:51:50.902Z,25.50
2019-02-03T07:52:50.900Z,28.10
2019-02-03T07:53:50.906Z,27.80
2019-02-03T07:54:50.896Z,27.40
2019-02-03T07:55:50.906Z,29.80
2019-02-03T07:56:50.907Z,28.90
2019-02-03T07:57:50.911Z,27.40
2019-02-03T07:58:50.907Z,27.00
2019-02-03T07:59:50.908Z,25.20
2019-02-03T08:00:50.909Z,25.50
2019-02-03T08:01:50.913Z,24.00
2019-02-03T08:02:50.911Z,27.10
2019-02-03T08:03:50.909Z,25.40
2019-02-03T08:04:50.914Z,25.60
2019-02-03T08:05:50.913Z,26.60
2019-02-03T08:06:50.914Z,27.30
2019-02-03T08:07:50.911Z,26.40
2019-02-03T08:08:50.913Z,25.40
2019-02-03T08:09:50.926Z,24.80
2019-02-03T08:10:50.919Z,24.50
2019-02-03T08:11:50.910Z,24.20
2019-02-03T08:12:50.945Z,25.60
2019-02-03T08:13:50.928Z,22.90
2019-02-03T08:14:50.931Z,21.30
2019-02-03T08:15:50.923Z,21.60
2019-02-03T08:16:50.921Z,28.60
2019-02-03T08:17:50.928Z,17.80
2019-02-03T08:18:50.938Z,25.60
2019-02-03T08:19:51.013Z,24.40
2019-02-03T08:20:50.924Z,21.10
2019-02-03T08:21:50.926Z,19.70
2019-02-03T08:22:50.921Z,21.90
2019-02-03T08:23:51.347Z,23.60
2019-02-03T08:24:50.931Z,22.00
2019-02-03T08:25:54.871Z,18.50
2019-02-03T08:27:50.940Z,22.40
2019-02-03T08:28:50.938Z,17.50
2019-02-03T08:29:50.939Z,21.50
2019-02-03T08:30:50.961Z,23.80
2019-02-03T08:31:50.943Z,19.50
2019-02-03T08:32:50.942Z,24.30
2019-02-03T08:33:50.948Z,21.30
2019-02-03T08:34:51.441Z,24.00
2019-02-03T08:35:51.339Z,18.50
2019-02-03T08:37:51.204Z,21.50
2019-02-03T08:38:50.961Z,18.40
2019-02-03T08:39:51.068Z,17.10
2019-02-03T08:40:50.964Z,16.90
2019-02-03T08:41:51.111Z,20.60
2019-02-03T08:42:51.109Z,22.70
2019-02-03T08:43:50.969Z,18.90
2019-02-03T08:44:50.973Z,18.40
2019-02-03T08:45:50.974Z,18.00
2019-02-03T08:46:50.966Z,18.10
2019-02-03T08:47:50.963Z,17.40
2019-02-03T08:48:50.968Z,19.80
2019-02-03T08:49:50.968Z,16.90
2019-02-03T08:50:50.978Z,19.60
2019-02-03T08:51:51.234Z,16.80
2019-02-03T08:52:51.417Z,18.00
2019-02-03T08:53:50.985Z,14.00
2019-02-03T08:54:58.379Z,19.20
2019-02-03T08:55:50.986Z,15.00
2019-02-03T08:56:50.969Z,17.00
2019-02-03T08:57:51.060Z,18.40
2019-02-03T08:58:50.974Z,15.00
2019-02-03T08:59:51.024Z,16.40
2019-02-03T09:00:50.988Z,18.30
2019-02-03T09:01:50.998Z,18.10
2019-02-03T09:02:50.999Z,16.30
2019-02-03T09:03:51.007Z,16.50
2019-02-03T09:04:51.000Z,17.30
2019-02-03T09:05:50.991Z,13.80
2019-02-03T09:06:50.993Z,19.50
2019-02-03T09:07:51.012Z,18.90
2019-02-03T09:08:51.015Z,15.60
2019-02-03T09:09:50.999Z,16.70
2019-02-03T09:10:53.773Z,19.60
2019-02-03T09:11:51.017Z,17.50
2019-02-03T09:12:51.152Z,15.30
2019-02-03T09:13:50.994Z,19.60
2019-02-03T09:14:51.001Z,17.20
2019-02-03T09:15:52.070Z,18.30
2019-02-03T09:16:51.016Z,16.50
2019-02-03T09:17:51.010Z,16.40
2019-02-03T09:18:51.101Z,16.10
2019-02-03T09:19:51.025Z,16.60
2019-02-03T09:25:33.041Z,15.70
2019-02-03T09:26:33.012Z,14.50
2019-02-03T09:27:33.010Z,14.90
2019-02-03T09:28:33.023Z,14.10
2019-02-03T09:29:33.015Z,14.30
2019-02-03T09:30:33.023Z,14.40
2019-02-03T09:31:33.019Z,13.40
2019-02-03T09:32:33.026Z,14.30
2019-02-03T09:33:33.039Z,15.40
2019-02-03T09:34:33.129Z,15.10
2019-02-03T09:35:33.040Z,12.70
2019-02-03T09:36:33.043Z,13.10
2019-02-03T09:37:33.049Z,12.00
2019-02-03T09:38:33.052Z,10.70
2019-02-03T09:39:33.054Z,10.80
2019-02-03T09:40:33.059Z,14.10
2019-02-03T09:41:33.075Z,14.50
2019-02-03T09:42:33.071Z,14.70
2019-02-03T09:43:33.094Z,16.30
2019-02-03T09:44:33.104Z,17.10
2019-02-03T09:45:33.120Z,12.90
2019-02-03T09:46:33.128Z,11.50
2019-02-03T09:47:33.132Z,10.40
2019-02-03T09:48:33.139Z,14.90
2019-02-03T09:49:33.160Z,11.70
2019-02-03T09:50:33.169Z,9.40
2019-02-03T09:51:33.177Z,11.60
2019-02-03T09:52:33.335Z,12.00
2019-02-03T09:53:33.205Z,14.40
2019-02-03T09:54:33.212Z,12.40
2019-02-03T09:55:33.220Z,10.00
2019-02-03T09:56:33.252Z,14.10
2019-02-03T09:57:33.250Z,13.50
2019-02-03T09:59:33.274Z,10.00
2019-02-03T10:00:33.290Z,10.30
2019-02-03T10:01:33.299Z,13.50
2019-02-03T10:02:33.319Z,11.60
2019-02-03T10:03:33.332Z,10.30
2019-02-03T10:04:33.346Z,13.00
2019-02-03T10:05:33.354Z,10.90
2019-02-03T10:06:33.367Z,12.10
2019-02-03T10:07:33.382Z,10.70
2019-02-03T10:08:40.334Z,12.40
2019-02-03T10:09:33.415Z,11.60
2019-02-03T10:10:33.438Z,10.70
2019-02-03T10:11:33.447Z,13.50
2019-02-03T10:12:33.454Z,13.60
2019-02-03T10:13:33.476Z,12.10
2019-02-03T10:14:33.482Z,10.00
2019-02-03T10:15:33.495Z,10.80
2019-02-03T10:16:33.507Z,9.60
2019-02-03T10:17:33.532Z,10.10
2019-02-03T10:18:33.537Z,8.90
2019-02-03T10:19:33.552Z,10.70
2019-02-03T10:20:33.572Z,10.50
2019-02-03T10:21:33.589Z,9.30
2019-02-03T10:22:33.610Z,12.70
2019-02-03T10:23:33.607Z,15.10
2019-02-03T10:24:41.992Z,12.40
2019-02-03T10:25:33.652Z,10.70
2019-02-03T10:26:33.660Z,10.80
2019-02-03T10:27:33.675Z,11.00
2019-02-03T10:28:33.696Z,8.60
2019-02-03T10:29:33.701Z,10.90
2019-02-03T10:30:33.725Z,10.60
2019-02-03T10:31:33.739Z,9.00
2019-02-03T10:32:33.748Z,9.40
2019-02-03T10:33:33.767Z,10.20
2019-02-03T10:34:33.785Z,10.20
2019-02-03T10:35:33.790Z,10.20
2019-02-03T10:36:33.817Z,11.60
2019-02-03T10:37:33.838Z,9.10
2019-02-03T10:38:33.987Z,8.30
2019-02-03T10:39:33.862Z,10.60
2019-02-03T10:40:33.865Z,10.70
2019-02-03T10:41:34.060Z,11.80
2019-02-03T10:42:33.908Z,10.30
2019-02-03T10:43:33.914Z,7.90
2019-02-03T10:44:33.932Z,8.10
2019-02-03T10:45:33.953Z,12.30
2019-02-03T10:46:33.965Z,13.40
2019-02-03T10:47:34.044Z,9.40
2019-02-03T10:48:33.992Z,8.90
2019-02-03T10:49:34.005Z,9.40
2019-02-03T10:50:34.029Z,12.60
2019-02-03T10:51:34.051Z,8.00
2019-02-03T10:52:34.057Z,10.90
2019-02-03T10:53:34.071Z,11.00
2019-02-03T10:54:34.093Z,7.30
2019-02-03T10:55:34.108Z,9.40
2019-02-03T10:56:34.134Z,8.90
2019-02-03T10:57:34.135Z,8.50
2019-02-03T10:58:34.147Z,11.00
2019-02-03T10:59:34.163Z,10.20
2019-02-03T11:00:34.181Z,8.60
2019-02-03T11:01:34.191Z,9.40
2019-02-03T11:02:34.204Z,8.30
2019-02-03T11:03:34.217Z,11.00
2019-02-03T11:04:34.235Z,7.20
2019-02-03T11:05:34.243Z,7.20
2019-02-03T11:06:34.251Z,8.80
2019-02-03T11:07:34.268Z,9.50
2019-02-03T11:08:34.283Z,12.50
2019-02-03T11:09:34.285Z,7.90
2019-02-03T11:10:34.294Z,9.10
2019-02-03T11:11:36.592Z,9.70
2019-02-03T11:12:34.323Z,7.80
2019-02-03T11:13:34.327Z,11.60
2019-02-03T11:14:34.338Z,11.20
2019-02-03T11:15:34.350Z,8.80
2019-02-03T11:16:34.352Z,10.60
2019-02-03T11:17:34.381Z,8.70
2019-02-03T11:18:34.387Z,9.10
2019-02-03T11:19:34.399Z,7.90
2019-02-03T11:20:34.414Z,7.30
2019-02-03T11:21:34.404Z,11.00
2019-02-03T11:22:34.422Z,12.60
2019-02-03T11:23:34.434Z,12.70
2019-02-03T11:24:34.444Z,10.20
2019-02-03T11:25:34.456Z,7.60
2019-02-03T11:26:34.466Z,11.40
2019-02-03T11:27:34.470Z,8.70
2019-02-03T11:28:34.478Z,11.20
2019-02-03T11:29:34.501Z,8.20
2019-02-03T11:30:34.504Z,10.50
2019-02-03T11:31:34.524Z,8.40
2019-02-03T11:32:34.526Z,10.00
2019-02-03T11:33:34.539Z,8.80
2019-02-03T11:34:34.547Z,9.80
2019-02-03T11:35:34.558Z,11.00
2019-02-03T11:36:34.569Z,8.80
2019-02-03T11:37:34.577Z,9.00
2019-02-03T11:38:34.591Z,8.90
2019-02-03T11:39:34.590Z,9.20
2019-02-03T11:40:34.608Z,6.50
2019-02-03T11:41:34.608Z,7.10
2019-02-03T11:42:34.621Z,9.50
2019-02-03T11:43:34.651Z,12.40
2019-02-03T11:44:34.635Z,6.60
2019-02-03T11:45:34.654Z,7.80
2019-02-03T11:46:34.790Z,14.40
2019-02-03T11:47:34.658Z,10.30
2019-02-03T11:48:34.667Z,10.30
2019-02-03T11:49:34.676Z,8.00
2019-02-03T11:50:34.684Z,11.10
2019-02-03T11:51:34.695Z,10.00
2019-02-03T11:52:34.707Z,9.30
2019-02-03T11:53:34.713Z,9.90
2019-02-03T11:54:34.719Z,6.30
2019-02-03T11:55:34.728Z,8.90
2019-02-03T11:56:34.726Z,8.90
2019-02-03T11:57:34.746Z,7.40
2019-02-03T11:58:34.753Z,9.10
2019-02-03T11:59:34.765Z,8.20
2019-02-03T12:00:34.768Z,10.50
2019-02-03T12:01:34.769Z,8.00
2019-02-03T12:02:41.775Z,5.60
2019-02-03T12:03:34.882Z,9.10
2019-02-03T12:04:34.795Z,9.60
2019-02-03T12:05:34.825Z,9.00
2019-02-03T12:06:34.810Z,7.90
2019-02-03T12:07:34.816Z,8.00
2019-02-03T12:08:34.830Z,10.70
2019-02-03T12:09:34.836Z,8.20
2019-02-03T12:10:34.832Z,9.60
2019-02-03T12:11:34.836Z,10.20
2019-02-03T12:12:34.848Z,9.10
2019-02-03T12:13:34.850Z,13.10
2019-02-03T12:14:34.854Z,9.20
2019-02-03T12:15:34.876Z,9.80
2019-02-03T12:16:34.881Z,8.00
2019-02-03T12:17:34.880Z,9.20
2019-02-03T12:18:34.895Z,12.40
2019-02-03T12:19:34.914Z,11.00
2019-02-03T12:20:34.900Z,9.00
2019-02-03T12:21:34.909Z,9.50
2019-02-03T12:22:34.915Z,8.00
2019-02-03T12:23:34.922Z,9.00
2019-02-03T12:24:34.928Z,11.40
2019-02-03T12:25:34.979Z,8.80
2019-02-03T12:26:36.494Z,9.10
2019-02-03T12:27:34.950Z,10.70
2019-02-03T12:28:34.952Z,8.30
2019-02-03T12:29:34.960Z,10.70
2019-02-03T12:30:34.961Z,10.90
2019-02-03T12:31:34.981Z,8.00
2019-02-03T12:32:34.984Z,11.30
2019-02-03T12:33:34.985Z,11.30
2019-02-03T12:34:35.008Z,14.60
2019-02-03T12:35:35.008Z,11.70
2019-02-03T12:36:35.005Z,8.60
2019-02-03T12:37:35.014Z,8.00
2019-02-03T12:38:35.023Z,12.70
2019-02-03T12:39:35.031Z,10.70
2019-02-03T12:40:35.041Z,9.20
2019-02-03T12:41:35.045Z,7.10
2019-02-03T12:42:35.054Z,7.90
2019-02-03T12:43:35.070Z,7.40
2019-02-03T12:44:35.073Z,8.20
2019-02-03T12:45:35.075Z,11.40
2019-02-03T12:46:35.088Z,8.40
2019-02-03T12:47:35.112Z,8.80
2019-02-03T12:48:35.101Z,8.40
2019-02-03T12:49:35.105Z,10.90
2019-02-03T12:50:35.124Z,10.80
2019-02-03T12:51:35.124Z,8.20
2019-02-03T12:52:35.139Z,9.30
2019-02-03T12:53:35.139Z,11.60
2019-02-03T12:54:35.160Z,6.90
2019-02-03T12:55:35.152Z,11.00
2019-02-03T12:56:35.160Z,8.20
2019-02-03T12:57:35.169Z,9.00
2019-02-03T12:58:35.172Z,12.40
2019-02-03T12:59:35.181Z,11.80